Time;durP1;ratioP1;P1;durP2;ratioP2;P2;SDS_P1;SDS_P2;PMS_P1;PMS_P2;Temp;Humidity;BMP_temperature;BMP_pressure;BME280_temperature;BME280_humidity;BME280_pressure;Samples;Min_cycle;Max_cycle;Signal;HPM_P1;HPM_P2
2022/04/30 00:02:24;;;;;;;;;;;;;;;6.58;54.42871;103102.8;;;;-79
2022/04/30 00:07:25;;;;;;;;;;;;;;;6.55;54.50293;103098.1;;;;-80
2022/04/30 00:12:28;;;;;;;;;;;;;;;6.47;54.55957;103099;;;;-81
2022/04/30 00:17:25;;;;;;;;;;;;;;;6.4;54.52832;103096.2;;;;-79
2022/04/30 00:22:24;;;;;;;;;;;;;;;6.35;54.66504;103093.4;;;;-80
2022/04/30 00:27:27;;;;;;;;;;;;;;;6.3;54.59277;103090.7;;;;-82
2022/04/30 00:29:10;;;;;;;4.3;2.5;;;;;;;;;;;;;-81
2022/04/30 00:32:25;;;;;;;;;;;;;;;6.23;54.72852;103094.1;;;;-80
2022/04/30 00:37:26;;;;;;;;;;;;;;;6.17;54.73145;103088.9;;;;-82
2022/04/30 00:42:27;;;;;;;;;;;;;;;6.13;54.73633;103087.9;;;;-81
2022/04/30 00:47:26;;;;;;;;;;;;;;;6.08;54.7627;103087.4;;;;-80
2022/04/30 00:52:26;;;;;;;;;;;;;;;6.05;54.94727;103080.8;;;;-80
2022/04/30 00:57:26;;;;;;;;;;;;;;;6.02;54.93262;103083.3;;;;-81
2022/04/30 00:59:17;;;;;;;4.8;2.3;;;;;;;;;;;;;-81
2022/04/30 01:02:28;;;;;;;;;;;;;;;5.99;54.85059;103083;;;;-80
2022/04/30 01:07:27;;;;;;;;;;;;;;;5.97;54.89355;103079.1;;;;-81
2022/04/30 01:12:25;;;;;;;;;;;;;;;5.97;55.02539;103078.9;;;;-78
2022/04/30 01:17:27;;;;;;;;;;;;;;;5.97;55.125;103077.9;;;;-78
2022/04/30 01:22:31;;;;;;;;;;;;;;;6.03;55.09863;103067.9;;;;-78
2022/04/30 01:27:26;;;;;;;;;;;;;;;6.09;55.00781;103059.3;;;;-78
2022/04/30 01:29:12;;;;;;;6.2;2.3;;;;;;;;;;;;;-79
2022/04/30 01:37:27;;;;;;;;;;;;;;;6.24;55.03711;103050.2;;;;-79
2022/04/30 01:42:25;;;;;;;;;;;;;;;6.33;54.85059;103047.1;;;;-79
2022/04/30 01:47:26;;;;;;;;;;;;;;;6.4;54.82617;103042.2;;;;-81
2022/04/30 01:52:25;;;;;;;;;;;;;;;6.47;54.74609;103041.4;;;;-80
2022/04/30 01:57:27;;;;;;;;;;;;;;;6.54;54.5127;103031.8;;;;-79
2022/04/30 01:59:10;;;;;;;3.9;2.2;;;;;;;;;;;;;-80
2022/04/30 02:02:27;;;;;;;;;;;;;;;6.63;54.33496;103033.1;;;;-79
2022/04/30 02:07:25;;;;;;;;;;;;;;;6.7;54.26758;103028.1;;;;-80
2022/04/30 02:12:24;;;;;;;;;;;;;;;6.77;54.16504;103022.2;;;;-81
2022/04/30 02:17:27;;;;;;;;;;;;;;;6.84;54.20801;103019.7;;;;-79
2022/04/30 02:22:26;;;;;;;;;;;;;;;6.91;54.16113;103020.5;;;;-81
2022/04/30 02:27:25;;;;;;;;;;;;;;;6.95;54.52051;103013;;;;-81
2022/04/30 02:29:10;;;;;;;5;2.3;;;;;;;;;;;;;-78
2022/04/30 02:32:24;;;;;;;;;;;;;;;7;54.7041;103006;;;;-81
2022/04/30 02:37:24;;;;;;;;;;;;;;;7.07;55.05469;103005.7;;;;-79
2022/04/30 02:42:25;;;;;;;;;;;;;;;7.11;55.16113;103001.3;;;;-82
2022/04/30 02:47:24;;;;;;;;;;;;;;;7.17;55.14453;102997.3;;;;-80
2022/04/30 02:52:27;;;;;;;;;;;;;;;7.2;54.97266;102996.1;;;;-83
2022/04/30 02:57:25;;;;;;;;;;;;;;;7.25;55.02246;102998.6;;;;-80
2022/04/30 03:02:25;;;;;;;;;;;;;;;7.27;55.19043;102994.4;;;;-81
2022/04/30 03:07:25;;;;;;;;;;;;;;;7.29;55.09473;102984.8;;;;-81
2022/04/30 03:12:25;;;;;;;;;;;;;;;7.32;55.13086;102985.2;;;;-82
2022/04/30 03:22:25;;;;;;;;;;;;;;;7.39;55.03027;102977.1;;;;-81
2022/04/30 03:27:24;;;;;;;;;;;;;;;7.41;55.13281;102981.3;;;;-81
2022/04/30 03:29:09;;;;;;;5.8;2.5;;;;;;;;;;;;;-80
2022/04/30 03:32:24;;;;;;;;;;;;;;;7.43;55.27832;102978;;;;-81
2022/04/30 03:37:24;;;;;;;;;;;;;;;7.46;55.29297;102976.2;;;;-80
2022/04/30 03:42:25;;;;;;;;;;;;;;;7.48;55.25098;102972.4;;;;-81
2022/04/30 03:47:28;;;;;;;;;;;;;;;7.5;55.29688;102962.1;;;;-81
2022/04/30 03:52:24;;;;;;;;;;;;;;;7.52;55.25684;102958.4;;;;-80
2022/04/30 03:57:25;;;;;;;;;;;;;;;7.53;55.1582;102954.6;;;;-81
2022/04/30 03:59:10;;;;;;;4.6;2.5;;;;;;;;;;;;;-81
2022/04/30 04:02:25;;;;;;;;;;;;;;;7.54;54.98242;102957;;;;-80
2022/04/30 04:07:24;;;;;;;;;;;;;;;7.56;54.83008;102954;;;;-81
2022/04/30 04:12:24;;;;;;;;;;;;;;;7.57;54.75293;102955.8;;;;-83
2022/04/30 04:22:24;;;;;;;;;;;;;;;7.6;54.52344;102950.2;;;;-81
2022/04/30 04:27:33;;;;;;;;;;;;;;;7.6;54.46875;102954.5;;;;-79
2022/04/30 04:29:10;;;;;;;4.9;2.4;;;;;;;;;;;;;-81
2022/04/30 04:32:27;;;;;;;;;;;;;;;7.6;54.42578;102954.4;;;;-80
2022/04/30 04:37:24;;;;;;;;;;;;;;;7.63;54.45117;102957.6;;;;-78
2022/04/30 04:42:30;;;;;;;;;;;;;;;7.64;54.51855;102956.1;;;;-81
2022/04/30 04:47:25;;;;;;;;;;;;;;;7.64;54.57422;102955.1;;;;-81
2022/04/30 04:52:26;;;;;;;;;;;;;;;7.66;54.80859;102953.8;;;;-79
2022/04/30 04:57:24;;;;;;;;;;;;;;;7.65;54.50977;102960.4;;;;-81
2022/04/30 04:59:12;;;;;;;4.2;2.3;;;;;;;;;;;;;-82
2022/04/30 05:02:26;;;;;;;;;;;;;;;7.66;54.73242;102957.4;;;;-82
2022/04/30 05:07:25;;;;;;;;;;;;;;;7.67;54.54492;102957.5;;;;-81
2022/04/30 05:12:24;;;;;;;;;;;;;;;7.68;54.49121;102962.5;;;;-80
2022/04/30 05:17:24;;;;;;;;;;;;;;;7.71;54.37305;102967.4;;;;-78
2022/04/30 05:22:27;;;;;;;;;;;;;;;7.73;54.3291;102966.4;;;;-79
2022/04/30 05:27:27;;;;;;;;;;;;;;;7.74;54.23242;102963;;;;-80
2022/04/30 05:29:10;;;;;;;4.3;2.3;;;;;;;;;;;;;-81
2022/04/30 05:32:24;;;;;;;;;;;;;;;7.76;54.17871;102962.7;;;;-81
2022/04/30 05:37:26;;;;;;;;;;;;;;;7.78;54.11621;102960.8;;;;-80
2022/04/30 05:42:24;;;;;;;;;;;;;;;7.81;54.16406;102959.8;;;;-80
2022/04/30 05:47:24;;;;;;;;;;;;;;;7.86;54.34668;102963.8;;;;-80
2022/04/30 05:52:24;;;;;;;;;;;;;;;7.92;54.38672;102970.6;;;;-81
2022/04/30 05:57:24;;;;;;;;;;;;;;;7.98;54.25195;102965.3;;;;-79
2022/04/30 05:59:13;;;;;;;4.8;2.4;;;;;;;;;;;;;-80
2022/04/30 06:02:25;;;;;;;;;;;;;;;8.08;54.20898;102960.9;;;;-80
2022/04/30 06:07:26;;;;;;;;;;;;;;;8.21;53.94629;102961.5;;;;-81
2022/04/30 06:12:25;;;;;;;;;;;;;;;8.42;53.48438;102959.7;;;;-81
2022/04/30 06:17:26;;;;;;;;;;;;;;;8.72;53.11035;102957.7;;;;-81
2022/04/30 06:22:24;;;;;;;;;;;;;;;9.05;52.75098;102964.2;;;;-82
2022/04/30 06:27:26;;;;;;;;;;;;;;;9.5;52.19434;102958.7;;;;-81
2022/04/30 06:29:13;;;;;;;5.1;2.6;;;;;;;;;;;;;-80
2022/04/30 06:32:24;;;;;;;;;;;;;;;9.98;51.63867;102953.9;;;;-82
2022/04/30 06:37:29;;;;;;;;;;;;;;;10.48;51.06152;102958.7;;;;-79
2022/04/30 06:42:24;;;;;;;;;;;;;;;11.07;50.32715;102948.9;;;;-81
2022/04/30 06:47:24;;;;;;;;;;;;;;;11.65;49.35254;102948.3;;;;-80
2022/04/30 06:52:25;;;;;;;;;;;;;;;12.18;48.4375;102944;;;;-81
2022/04/30 06:57:28;;;;;;;;;;;;;;;12.69;47.77539;102936.4;;;;-82
2022/04/30 06:59:13;;;;;;;5.2;2.6;;;;;;;;;;;;;-82
2022/04/30 07:02:31;;;;;;;;;;;;;;;13.19;47.875;102935.3;;;;-82
2022/04/30 07:07:27;;;;;;;;;;;;;;;13.63;47.23633;102933.8;;;;-79
2022/04/30 07:12:24;;;;;;;;;;;;;;;13.93;47.08789;102929;;;;-82
2022/04/30 07:17:25;;;;;;;;;;;;;;;13.92;47.04297;102936;;;;-80
2022/04/30 07:22:25;;;;;;;;;;;;;;;13.79;47.44531;102934.2;;;;-81
2022/04/30 07:27:27;;;;;;;;;;;;;;;13.67;47.71387;102937;;;;-79
2022/04/30 07:29:12;;;;;;;5.5;2.9;;;;;;;;;;;;;-81
2022/04/30 07:32:24;;;;;;;;;;;;;;;13.63;47.77637;102939.4;;;;-82
2022/04/30 07:37:24;;;;;;;;;;;;;;;13.89;47.81543;102941.6;;;;-82
2022/04/30 07:42:30;;;;;;;;;;;;;;;14.41;47.30859;102934.8;;;;-82
2022/04/30 07:47:25;;;;;;;;;;;;;;;15.09;46.57031;102932.3;;;;-83
2022/04/30 07:52:27;;;;;;;;;;;;;;;15.77;45.5791;102924.6;;;;-82
2022/04/30 07:57:25;;;;;;;;;;;;;;;16.11;44.79785;102927.7;;;;-81
2022/04/30 07:59:13;;;;;;;6.7;2.6;;;;;;;;;;;;;-81
2022/04/30 08:02:25;;;;;;;;;;;;;;;15.93;44.56445;102928.4;;;;-81
2022/04/30 08:07:24;;;;;;;;;;;;;;;15.53;45.44043;102933.9;;;;-81
2022/04/30 08:12:25;;;;;;;;;;;;;;;15.13;45.92871;102934.5;;;;-83
2022/04/30 08:17:27;;;;;;;;;;;;;;;14.77;46.34375;102936.5;;;;-82
2022/04/30 08:22:26;;;;;;;;;;;;;;;14.5;46.8457;102937.3;;;;-81
2022/04/30 08:27:25;;;;;;;;;;;;;;;14.28;47.30566;102933.4;;;;-81
2022/04/30 08:29:17;;;;;;;5;2.5;;;;;;;;;;;;;-81
2022/04/30 08:32:26;;;;;;;;;;;;;;;14.14;47.83301;102931.3;;;;-80
2022/04/30 08:37:26;;;;;;;;;;;;;;;14.11;48.04297;102929.8;;;;-79
2022/04/30 08:42:29;;;;;;;;;;;;;;;14.16;48.12695;102928.1;;;;-80
2022/04/30 08:47:25;;;;;;;;;;;;;;;14.13;47.91016;102925.9;;;;-81
2022/04/30 08:52:24;;;;;;;;;;;;;;;14.04;47.92285;102924.6;;;;-81
2022/04/30 08:57:28;;;;;;;;;;;;;;;13.96;48.13867;102920.5;;;;-82
2022/04/30 08:59:17;;;;;;;4;2.1;;;;;;;;;;;;;-84
2022/04/30 09:02:31;;;;;;;;;;;;;;;13.95;48.12598;102917.8;;;;-82
2022/04/30 09:07:25;;;;;;;;;;;;;;;13.98;47.97168;102913.6;;;;-82
2022/04/30 09:12:24;;;;;;;;;;;;;;;13.99;47.90625;102916.9;;;;-83
2022/04/30 09:17:25;;;;;;;;;;;;;;;13.96;48.03711;102912.3;;;;-81
2022/04/30 09:22:34;;;;;;;;;;;;;;;13.89;48.12012;102911.4;;;;-80
2022/04/30 09:27:26;;;;;;;;;;;;;;;13.83;48.20313;102912.4;;;;-82
2022/04/30 09:29:28;;;;;;;4.6;2.2;;;;;;;;;;;;;-81
2022/04/30 09:32:26;;;;;;;;;;;;;;;13.7;48.80859;102906.1;;;;-81
2022/04/30 09:42:25;;;;;;;;;;;;;;;13.64;49.08203;102904;;;;-82
2022/04/30 09:47:25;;;;;;;;;;;;;;;13.72;48.94531;102900.8;;;;-81
2022/04/30 09:57:27;;;;;;;;;;;;;;;13.96;48.5332;102895.6;;;;-83
2022/04/30 09:59:21;;;;;;;3.6;1.9;;;;;;;;;;;;;-82
2022/04/30 10:02:25;;;;;;;;;;;;;;;14.03;48.25781;102888.3;;;;-80
2022/04/30 10:07:29;;;;;;;;;;;;;;;14.05;48.03613;102882.3;;;;-81
2022/04/30 10:12:31;;;;;;;;;;;;;;;14.01;48.12207;102884.8;;;;-83
2022/04/30 10:17:28;;;;;;;;;;;;;;;14.06;48.09375;102877.8;;;;-83
2022/04/30 10:22:26;;;;;;;;;;;;;;;14.23;47.91992;102876.3;;;;-82
2022/04/30 10:27:24;;;;;;;;;;;;;;;14.51;47.70313;102873.9;;;;-81
2022/04/30 10:29:22;;;;;;;3;1.7;;;;;;;;;;;;;-83
2022/04/30 10:32:32;;;;;;;;;;;;;;;14.79;47.22656;102864.6;;;;-80
2022/04/30 10:37:38;;;;;;;;;;;;;;;15.04;46.85742;102864;;;;-83
2022/04/30 10:42:34;;;;;;;;;;;;;;;15.24;46.28027;102855.3;;;;-83
2022/04/30 10:47:26;;;;;;;;;;;;;;;15.41;46.02734;102849.7;;;;-82
2022/04/30 10:52:25;;;;;;;;;;;;;;;15.62;45.7998;102843.8;;;;-83
2022/04/30 10:57:26;;;;;;;;;;;;;;;15.86;45.39453;102833.4;;;;-83
2022/04/30 10:59:31;;;;;;;2.8;1.5;;;;;;;;;;;;;-82
2022/04/30 11:07:29;;;;;;;;;;;;;;;16.43;44.97852;102830.9;;;;-83
2022/04/30 11:12:30;;;;;;;;;;;;;;;16.59;44.6875;102829.2;;;;-84
2022/04/30 11:17:29;;;;;;;;;;;;;;;16.7;44.43848;102829.8;;;;-82
2022/04/30 11:22:34;;;;;;;;;;;;;;;17;44.73047;102825.7;;;;-82
2022/04/30 11:27:35;;;;;;;;;;;;;;;17.35;44.39063;102822.5;;;;-83
2022/04/30 11:29:24;;;;;;;3.9;1.4;;;;;;;;;;;;;-84
2022/04/30 11:32:38;;;;;;;;;;;;;;;17.6;43.84668;102819.7;;;;-84
2022/04/30 11:37:33;;;;;;;;;;;;;;;17.78;43.7627;102817.8;;;;-83
2022/04/30 11:42:27;;;;;;;;;;;;;;;17.99;43.27051;102821.3;;;;-82
2022/04/30 11:47:26;;;;;;;;;;;;;;;18.15;42.83203;102808.4;;;;-85
2022/04/30 11:52:24;;;;;;;;;;;;;;;18.33;42.76953;102806.8;;;;-83
2022/04/30 11:57:25;;;;;;;;;;;;;;;18.22;41.24316;102803;;;;-73
2022/04/30 11:59:38;;;;;;;2.2;1.3;;;;;;;;;;;;;-74
2022/04/30 12:02:26;;;;;;;;;;;;;;;17.23;41.84473;102805.2;;;;-72
2022/04/30 12:12:27;;;;;;;;;;;;;;;18.57;40.80957;102794.4;;;;-82
2022/04/30 12:17:32;;;;;;;;;;;;;;;19;40.35742;102793.5;;;;-83
2022/04/30 12:27:30;;;;;;;;;;;;;;;18.99;41.50977;102790.7;;;;-83
2022/04/30 12:29:27;;;;;;;3.7;1.5;;;;;;;;;;;;;-81
2022/04/30 12:32:24;;;;;;;;;;;;;;;18.72;42.09961;102797.4;;;;-80
2022/04/30 12:37:37;;;;;;;;;;;;;;;18.37;41.64648;102793.5;;;;-83
2022/04/30 12:42:34;;;;;;;;;;;;;;;17.99;42.08789;102789.9;;;;-81
2022/04/30 12:47:27;;;;;;;;;;;;;;;17.63;42.45117;102787.1;;;;-82
2022/04/30 12:52:29;;;;;;;;;;;;;;;17.32;42.8418;102786;;;;-82
2022/04/30 12:57:24;;;;;;;;;;;;;;;17.01;43.32227;102783.6;;;;-80
2022/04/30 12:59:33;;;;;;;2.8;1.6;;;;;;;;;;;;;-82
2022/04/30 13:02:29;;;;;;;;;;;;;;;16.83;43.7373;102779.8;;;;-80
2022/04/30 13:07:27;;;;;;;;;;;;;;;16.7;44.01855;102774.2;;;;-80
2022/04/30 13:17:24;;;;;;;;;;;;;;;16.67;44.18457;102761.6;;;;-84
2022/04/30 13:22:24;;;;;;;;;;;;;;;16.68;44.20996;102756.7;;;;-82
2022/04/30 13:27:24;;;;;;;;;;;;;;;16.71;44.20117;102756.8;;;;-80
2022/04/30 13:29:31;;;;;;;2.7;1.6;;;;;;;;;;;;;-79
2022/04/30 13:32:24;;;;;;;;;;;;;;;16.67;44.15039;102751.9;;;;-83
2022/04/30 13:37:25;;;;;;;;;;;;;;;16.6;44.21289;102750.4;;;;-85
2022/04/30 13:42:28;;;;;;;;;;;;;;;16.54;44.26367;102751.1;;;;-81
2022/04/30 13:47:25;;;;;;;;;;;;;;;16.51;44.27246;102751.4;;;;-82
2022/04/30 13:52:25;;;;;;;;;;;;;;;16.42;44.33105;102747.3;;;;-81
2022/04/30 13:57:24;;;;;;;;;;;;;;;16.29;44.50977;102741.9;;;;-79
2022/04/30 13:59:33;;;;;;;4.8;2.2;;;;;;;;;;;;;-82
2022/04/30 14:02:27;;;;;;;;;;;;;;;16.12;44.84375;102737.7;;;;-82
2022/04/30 14:07:25;;;;;;;;;;;;;;;15.95;45.05371;102732.2;;;;-82
2022/04/30 14:12:24;;;;;;;;;;;;;;;15.75;45.31445;102738.5;;;;-81
2022/04/30 14:22:31;;;;;;;;;;;;;;;15.4;45.82227;102730.3;;;;-72
2022/04/30 14:27:37;;;;;;;;;;;;;;;15.18;46.22949;102725.4;;;;-84
2022/04/30 14:29:35;;;;;;;3;1.9;;;;;;;;;;;;;-79
2022/04/30 14:32:26;;;;;;;;;;;;;;;15.08;46.29785;102723.9;;;;-82
2022/04/30 14:37:25;;;;;;;;;;;;;;;14.97;46.47754;102711.7;;;;-82
2022/04/30 14:42:27;;;;;;;;;;;;;;;14.89;46.41309;102717.5;;;;-80
2022/04/30 14:47:24;;;;;;;;;;;;;;;14.83;46.56348;102713.5;;;;-81
2022/04/30 14:52:24;;;;;;;;;;;;;;;14.77;46.54688;102712.7;;;;-81
2022/04/30 14:57:24;;;;;;;;;;;;;;;14.72;46.63184;102715.3;;;;-79
2022/04/30 14:59:37;;;;;;;5.6;2.2;;;;;;;;;;;;;-80
2022/04/30 15:02:24;;;;;;;;;;;;;;;14.66;46.70508;102713;;;;-81
2022/04/30 15:07:24;;;;;;;;;;;;;;;14.61;46.77832;102712.8;;;;-80
2022/04/30 15:12:24;;;;;;;;;;;;;;;14.56;46.77246;102705.4;;;;-81
2022/04/30 15:17:24;;;;;;;;;;;;;;;14.5;46.90234;102702.1;;;;-81
2022/04/30 15:22:24;;;;;;;;;;;;;;;14.43;46.90625;102700.4;;;;-82
2022/04/30 15:27:25;;;;;;;;;;;;;;;14.35;47.02051;102699;;;;-82
2022/04/30 15:29:36;;;;;;;4.6;2.2;;;;;;;;;;;;;-80
2022/04/30 15:32:24;;;;;;;;;;;;;;;14.27;46.94434;102700.6;;;;-81
2022/04/30 15:37:30;;;;;;;;;;;;;;;14.19;46.86914;102699.4;;;;-80
2022/04/30 15:42:25;;;;;;;;;;;;;;;14.08;46.96973;102697.4;;;;-80
2022/04/30 15:52:25;;;;;;;;;;;;;;;13.87;46.86816;102691.4;;;;-81
2022/04/30 15:57:25;;;;;;;;;;;;;;;13.77;46.83594;102687.4;;;;-81
2022/04/30 15:59:37;;;;;;;3.6;2;;;;;;;;;;;;;-83
2022/04/30 16:02:24;;;;;;;;;;;;;;;13.66;46.99219;102684.8;;;;-79
2022/04/30 16:07:26;;;;;;;;;;;;;;;13.54;47.00293;102684.8;;;;-81
2022/04/30 16:12:24;;;;;;;;;;;;;;;13.44;46.90039;102686.4;;;;-82
2022/04/30 16:17:24;;;;;;;;;;;;;;;13.34;46.94727;102686.8;;;;-81
2022/04/30 16:22:24;;;;;;;;;;;;;;;13.25;46.9248;102684.1;;;;-81
2022/04/30 16:27:27;;;;;;;;;;;;;;;13.14;46.96973;102676;;;;-81
2022/04/30 16:29:40;;;;;;;3;1.9;;;;;;;;;;;;;-79
2022/04/30 16:32:28;;;;;;;;;;;;;;;13.05;46.99414;102672.6;;;;-82
2022/04/30 16:37:24;;;;;;;;;;;;;;;12.97;47.18848;102672;;;;-81
2022/04/30 16:42:25;;;;;;;;;;;;;;;12.9;47.24805;102670;;;;-81
2022/04/30 16:47:25;;;;;;;;;;;;;;;12.81;47.3623;102669.6;;;;-82
2022/04/30 16:52:24;;;;;;;;;;;;;;;12.73;47.55469;102673.5;;;;-82
2022/04/30 16:57:26;;;;;;;;;;;;;;;12.65;47.75879;102676.4;;;;-82
2022/04/30 16:59:39;;;;;;;4;2;;;;;;;;;;;;;-81
2022/04/30 17:02:24;;;;;;;;;;;;;;;12.57;47.85254;102674.8;;;;-81
2022/04/30 17:07:24;;;;;;;;;;;;;;;12.49;48.01172;102675.3;;;;-82
2022/04/30 17:12:24;;;;;;;;;;;;;;;12.42;48.13965;102672.2;;;;-82
2022/04/30 17:17:25;;;;;;;;;;;;;;;12.36;48.27734;102672.1;;;;-80
2022/04/30 17:22:27;;;;;;;;;;;;;;;12.29;48.42676;102672.5;;;;-82
2022/04/30 17:27:24;;;;;;;;;;;;;;;12.23;48.53223;102669;;;;-81
2022/04/30 17:29:44;;;;;;;3.8;2.3;;;;;;;;;;;;;-81
2022/04/30 17:42:25;;;;;;;;;;;;;;;12.09;48.86426;102671.6;;;;-82
2022/04/30 17:47:26;;;;;;;;;;;;;;;12.05;48.97266;102666.8;;;;-81
2022/04/30 17:52:27;;;;;;;;;;;;;;;12.02;49.08008;102668.5;;;;-82
2022/04/30 17:57:25;;;;;;;;;;;;;;;11.98;49.1875;102668.9;;;;-80
2022/04/30 17:59:41;;;;;;;4.6;2.8;;;;;;;;;;;;;-81
2022/04/30 18:02:24;;;;;;;;;;;;;;;11.94;49.28418;102671.1;;;;-80
2022/04/30 18:07:24;;;;;;;;;;;;;;;11.89;49.3916;102667.1;;;;-79
2022/04/30 18:12:25;;;;;;;;;;;;;;;11.85;49.46484;102676.9;;;;-81
2022/04/30 18:17:26;;;;;;;;;;;;;;;11.81;49.48242;102675.4;;;;-81
2022/04/30 18:22:24;;;;;;;;;;;;;;;11.77;49.58984;102673.4;;;;-81
2022/04/30 18:27:25;;;;;;;;;;;;;;;11.73;49.55273;102673.2;;;;-81
2022/04/30 18:29:42;;;;;;;6.6;3.3;;;;;;;;;;;;;-80
2022/04/30 18:32:24;;;;;;;;;;;;;;;11.69;49.65918;102673.1;;;;-81
2022/04/30 18:37:24;;;;;;;;;;;;;;;11.64;49.6875;102672.3;;;;-81
2022/04/30 18:42:25;;;;;;;;;;;;;;;11.58;49.78125;102672.4;;;;-81
2022/04/30 18:47:25;;;;;;;;;;;;;;;11.51;49.88477;102669.6;;;;-80
2022/04/30 18:52:24;;;;;;;;;;;;;;;11.41;50.05273;102670.6;;;;-82
2022/04/30 19:02:24;;;;;;;;;;;;;;;11.2;50.35254;102681.7;;;;-82
2022/04/30 19:07:24;;;;;;;;;;;;;;;11.07;50.49316;102685.4;;;;-83
2022/04/30 19:12:24;;;;;;;;;;;;;;;10.92;50.74512;102687.4;;;;-83
2022/04/30 19:17:24;;;;;;;;;;;;;;;10.78;50.88477;102691.9;;;;-80
2022/04/30 19:22:31;;;;;;;;;;;;;;;10.62;50.95605;102694;;;;-81
2022/04/30 19:27:24;;;;;;;;;;;;;;;10.45;51.24805;102694.8;;;;-81
2022/04/30 19:29:43;;;;;;;8.6;4.4;;;;;;;;;;;;;-80
2022/04/30 19:32:24;;;;;;;;;;;;;;;10.31;51.49902;102697.6;;;;-82
2022/04/30 19:37:25;;;;;;;;;;;;;;;10.17;51.67383;102697.6;;;;-81
2022/04/30 19:42:28;;;;;;;;;;;;;;;10.04;51.85645;102696;;;;-81
2022/04/30 19:47:26;;;;;;;;;;;;;;;9.9;52.09766;102694.2;;;;-80
2022/04/30 19:52:25;;;;;;;;;;;;;;;9.77;52.30469;102695;;;;-81
2022/04/30 19:57:25;;;;;;;;;;;;;;;9.64;52.52246;102696.6;;;;-80
2022/04/30 19:59:44;;;;;;;7.8;4.1;;;;;;;;;;;;;-82
2022/04/30 20:02:27;;;;;;;;;;;;;;;9.53;52.6084;102703.7;;;;-81
2022/04/30 20:07:24;;;;;;;;;;;;;;;9.38;52.64746;102700.3;;;;-80
2022/04/30 20:17:24;;;;;;;;;;;;;;;9.15;53.0752;102701.5;;;;-80
2022/04/30 20:22:26;;;;;;;;;;;;;;;9.03;53.18262;102696;;;;-81
2022/04/30 20:27:26;;;;;;;;;;;;;;;8.9;53.58887;102694.8;;;;-82
2022/04/30 20:29:45;;;;;;;7.1;3.8;;;;;;;;;;;;;-81
2022/04/30 20:37:24;;;;;;;;;;;;;;;8.68;53.59473;102698.9;;;;-81
2022/04/30 20:42:24;;;;;;;;;;;;;;;8.58;53.82715;102697.3;;;;-79
2022/04/30 20:47:27;;;;;;;;;;;;;;;8.47;53.7793;102693.8;;;;-80
2022/04/30 20:52:26;;;;;;;;;;;;;;;8.38;54.03613;102694;;;;-80
2022/04/30 20:57:30;;;;;;;;;;;;;;;8.23;54.02734;102692;;;;-79
2022/04/30 20:59:45;;;;;;;7.5;3.6;;;;;;;;;;;;;-82
2022/04/30 21:02:24;;;;;;;;;;;;;;;8.12;54.17871;102689.1;;;;-80
2022/04/30 21:07:25;;;;;;;;;;;;;;;8.01;54.33301;102692.8;;;;-82
2022/04/30 21:12:28;;;;;;;;;;;;;;;7.91;54.38574;102696.3;;;;-83
2022/04/30 21:17:24;;;;;;;;;;;;;;;7.8;54.63867;102695.4;;;;-80
2022/04/30 21:22:24;;;;;;;;;;;;;;;7.68;54.53418;102692.3;;;;-80
2022/04/30 21:27:26;;;;;;;;;;;;;;;7.58;54.72168;102689.2;;;;-80
2022/04/30 21:29:45;;;;;;;7.5;3.9;;;;;;;;;;;;;-81
2022/04/30 21:32:24;;;;;;;;;;;;;;;7.46;54.78418;102689.7;;;;-82
2022/04/30 21:37:24;;;;;;;;;;;;;;;7.38;54.85059;102682.9;;;;-80
2022/04/30 21:42:24;;;;;;;;;;;;;;;7.3;54.90723;102681.5;;;;-81
2022/04/30 21:47:26;;;;;;;;;;;;;;;7.24;54.94336;102680.8;;;;-80
2022/04/30 21:52:24;;;;;;;;;;;;;;;7.13;55.08496;102686.3;;;;-80
2022/04/30 21:59:54;;;;;;;7.4;3.8;;;;;;;;;;;;;-80
2022/04/30 22:02:29;;;;;;;;;;;;;;;6.95;55.20508;102675.1;;;;-79
2022/04/30 22:07:24;;;;;;;;;;;;;;;6.85;55.40234;102678.4;;;;-79
2022/04/30 22:12:24;;;;;;;;;;;;;;;6.78;55.36035;102679.8;;;;-81
2022/04/30 22:17:26;;;;;;;;;;;;;;;6.71;55.42871;102684.6;;;;-81
2022/04/30 22:22:24;;;;;;;;;;;;;;;6.65;55.55469;102684.9;;;;-80
2022/04/30 22:27:24;;;;;;;;;;;;;;;6.57;55.58691;102684.2;;;;-80
2022/04/30 22:29:48;;;;;;;8.6;4.3;;;;;;;;;;;;;-81
2022/04/30 22:32:29;;;;;;;;;;;;;;;6.5;55.50098;102680.9;;;;-81
2022/04/30 22:37:24;;;;;;;;;;;;;;;6.4;55.62109;102689;;;;-79
2022/04/30 22:47:25;;;;;;;;;;;;;;;6.26;55.76758;102682.8;;;;-81
2022/04/30 22:52:25;;;;;;;;;;;;;;;6.24;55.89941;102687.7;;;;-81
2022/04/30 22:57:24;;;;;;;;;;;;;;;6.15;56.08496;102684.4;;;;-79
2022/04/30 22:59:50;;;;;;;10.7;4.8;;;;;;;;;;;;;-81
2022/04/30 23:02:24;;;;;;;;;;;;;;;6.09;56.10938;102676.3;;;;-81
2022/04/30 23:07:24;;;;;;;;;;;;;;;6.01;56.32031;102672.5;;;;-81
2022/04/30 23:12:27;;;;;;;;;;;;;;;5.92;56.1543;102675;;;;-80
2022/04/30 23:17:25;;;;;;;;;;;;;;;5.84;56.28809;102669.7;;;;-80
2022/04/30 23:22:24;;;;;;;;;;;;;;;5.78;56.39063;102672.5;;;;-78
2022/04/30 23:27:25;;;;;;;;;;;;;;;5.7;56.57813;102667.6;;;;-80
2022/04/30 23:29:45;;;;;;;9.3;4.6;;;;;;;;;;;;;-81
2022/04/30 23:32:24;;;;;;;;;;;;;;;5.64;56.45898;102664;;;;-80
2022/04/30 23:37:24;;;;;;;;;;;;;;;5.56;56.6582;102661.1;;;;-81
2022/04/30 23:42:24;;;;;;;;;;;;;;;5.52;56.65332;102661.8;;;;-80
2022/04/30 23:47:24;;;;;;;;;;;;;;;5.48;56.34961;102652.7;;;;-80
2022/04/30 23:52:25;;;;;;;;;;;;;;;5.42;56.55176;102658.4;;;;-81
2022/04/30 23:57:24;;;;;;;;;;;;;;;5.38;56.47949;102653.9;;;;-80
2022/04/30 23:59:45;;;;;;;10.7;4.8;;;;;;;;;;;;;-80
